createdAt,value
2022-11-05T00:00:48.597Z,100763.00
2022-11-05T00:03:35.818Z,100766.00
2022-11-05T00:06:17.550Z,100772.47
2022-11-05T00:09:02.869Z,100764.78
2022-11-05T00:11:44.676Z,100758.97
2022-11-05T00:14:33.543Z,100773.09
2022-11-05T00:17:01.279Z,100772.50
2022-11-05T00:19:31.090Z,100772.81
2022-11-05T00:22:16.453Z,100775.78
2022-11-05T00:25:01.801Z,100783.28
2022-11-05T00:27:30.257Z,100780.25
2022-11-05T00:29:59.583Z,100784.03
2022-11-05T00:32:27.353Z,100787.88
2022-11-05T00:34:56.127Z,100789.03
2022-11-05T00:37:25.175Z,100791.88
2022-11-05T00:39:52.811Z,100793.88
2022-11-05T00:42:39.093Z,100797.69
2022-11-05T00:45:12.761Z,100804.22
2022-11-05T00:47:59.709Z,100799.25
2022-11-05T00:50:29.754Z,100796.91
2022-11-05T00:53:00.481Z,100810.41
2022-11-05T00:55:33.765Z,100809.75
2022-11-05T00:58:02.594Z,100810.94
2022-11-05T01:00:33.483Z,100820.00
2022-11-05T01:03:03.920Z,100823.78
2022-11-05T01:05:32.795Z,100817.97
2022-11-05T01:08:02.745Z,100825.25
2022-11-05T01:10:31.451Z,100827.25
2022-11-05T01:12:59.597Z,100829.25
2022-11-05T01:15:27.823Z,100829.34
2022-11-05T01:17:56.709Z,100838.31
2022-11-05T01:20:25.773Z,100829.84
2022-11-05T01:22:53.324Z,100837.22
2022-11-05T01:25:22.765Z,100841.03
2022-11-05T01:27:51.266Z,100839.63
2022-11-05T01:33:12.650Z,100838.31
2022-11-05T01:35:41.879Z,100828.94
2022-11-05T01:38:34.839Z,100831.75
2022-11-05T01:41:03.769Z,100831.97
2022-11-05T01:43:47.916Z,100834.88
2022-11-05T01:46:18.834Z,100837.69
2022-11-05T01:49:16.515Z,100842.44
2022-11-05T01:51:46.690Z,100847.91
2022-11-05T01:54:19.648Z,100844.59
2022-11-05T01:56:52.270Z,100851.88
2022-11-05T01:59:24.791Z,100856.47
2022-11-05T02:01:52.977Z,100857.53
2022-11-05T02:04:28.770Z,100856.97
2022-11-05T02:06:56.877Z,100859.78
2022-11-05T02:09:30.157Z,100857.34
2022-11-05T02:11:58.314Z,100864.50
2022-11-05T02:14:29.250Z,100861.00
2022-11-05T02:17:02.290Z,100869.22
2022-11-05T02:20:10.437Z,100859.69
2022-11-05T02:23:18.200Z,100860.75
2022-11-05T02:26:35.383Z,100870.72
2022-11-05T02:29:46.596Z,100876.25
2022-11-05T02:32:26.293Z,100889.69
2022-11-05T02:35:02.615Z,100885.47
2022-11-05T02:37:40.780Z,100878.63
2022-11-05T02:40:22.741Z,100882.84
2022-11-05T02:43:02.195Z,100877.66
2022-11-05T02:45:41.791Z,100883.94
2022-11-05T02:48:22.287Z,100888.56
2022-11-05T02:50:56.779Z,100880.00
2022-11-05T02:53:35.157Z,100874.00
2022-11-05T02:56:08.421Z,100875.78
2022-11-05T02:58:39.847Z,100889.84
2022-11-05T03:01:11.743Z,100887.31
2022-11-05T03:03:43.789Z,100888.28
2022-11-05T03:06:28.827Z,100884.91
2022-11-05T03:09:11.864Z,100883.94
2022-11-05T03:11:46.977Z,100887.59
2022-11-05T03:14:23.756Z,100891.19
2022-11-05T03:17:08.500Z,100889.59
2022-11-05T03:19:44.009Z,100894.09
2022-11-05T03:22:41.643Z,100884.59
2022-11-05T03:25:12.750Z,100884.78
2022-11-05T03:27:47.196Z,100893.59
2022-11-05T03:30:16.960Z,100890.22
2022-11-05T03:32:49.377Z,100895.69
2022-11-05T03:35:23.933Z,100902.78
2022-11-05T03:38:00.755Z,100898.66
2022-11-05T03:40:33.804Z,100900.53
2022-11-05T03:43:05.557Z,100908.41
2022-11-05T03:45:39.894Z,100905.03
2022-11-05T03:48:11.728Z,100909.47
2022-11-05T03:50:45.875Z,100899.78
2022-11-05T03:53:17.924Z,100904.25
2022-11-05T03:55:52.467Z,100905.41
2022-11-05T03:58:23.812Z,100901.97
2022-11-05T04:00:55.614Z,100909.13
2022-11-05T04:03:23.823Z,100907.53
2022-11-05T04:06:35.879Z,100919.84
2022-11-05T04:09:22.572Z,100912.97
2022-11-05T04:12:07.800Z,100922.63
2022-11-05T04:14:36.801Z,100920.94
2022-11-05T04:17:09.886Z,100924.59
2022-11-05T04:20:00.356Z,100926.47
2022-11-05T04:22:49.295Z,100923.09
2022-11-05T04:25:18.831Z,100925.88
2022-11-05T04:27:51.954Z,100931.22
2022-11-05T04:30:19.921Z,100924.38
2022-11-05T04:32:58.855Z,100928.75
2022-11-05T04:35:27.826Z,100929.63
2022-11-05T04:37:56.831Z,100932.44
2022-11-05T04:40:26.741Z,100932.53
2022-11-05T04:42:56.024Z,100936.94
2022-11-05T04:45:24.387Z,100934.31
2022-11-05T04:47:52.253Z,100934.31
2022-11-05T04:50:20.837Z,100936.84
2022-11-05T04:52:49.353Z,100936.00
2022-11-05T04:55:18.828Z,100940.31
2022-11-05T04:57:49.377Z,100934.13
2022-11-05T05:00:18.814Z,100938.28
2022-11-05T05:02:47.058Z,100938.19
2022-11-05T05:05:15.391Z,100942.50
2022-11-05T05:07:43.342Z,100948.63
2022-11-05T05:10:12.128Z,100950.41
2022-11-05T05:12:42.748Z,100948.53
2022-11-05T05:15:10.294Z,100942.25
2022-11-05T05:17:37.898Z,100950.75
2022-11-05T05:20:23.373Z,100947.00
2022-11-05T05:22:54.808Z,100944.19
2022-11-05T05:25:23.767Z,100948.34
2022-11-05T05:27:53.936Z,100950.72
2022-11-05T05:30:25.958Z,100949.59
2022-11-05T05:32:56.794Z,100959.09
2022-11-05T05:35:24.466Z,100967.66
2022-11-05T05:37:56.610Z,100975.38
2022-11-05T05:40:28.199Z,100971.56
2022-11-05T05:42:57.170Z,100974.00
2022-11-05T05:45:24.737Z,100983.41
2022-11-05T05:47:55.820Z,100980.63
2022-11-05T05:50:23.505Z,100972.44
2022-11-05T05:52:52.929Z,100971.31
2022-11-05T05:55:24.805Z,100980.81
2022-11-05T05:57:53.832Z,100984.22
2022-11-05T06:00:23.686Z,100988.56
2022-11-05T06:02:51.315Z,100999.00
2022-11-05T06:05:18.880Z,101003.16
2022-11-05T06:07:46.494Z,100996.84
2022-11-05T06:13:05.824Z,100999.47
2022-11-05T06:15:36.207Z,101007.31
2022-11-05T06:18:05.306Z,101015.22
2022-11-05T06:20:33.737Z,101015.22
2022-11-05T06:23:01.271Z,101023.13
2022-11-05T06:25:30.873Z,101024.13
2022-11-05T06:27:58.899Z,101016.31
2022-11-05T06:30:26.758Z,101017.16
2022-11-05T06:32:55.642Z,101022.53
2022-11-05T06:35:28.764Z,101022.78
2022-11-05T06:38:22.072Z,101029.16
2022-11-05T06:40:49.686Z,101032.84
2022-11-05T06:43:17.262Z,101037.41
2022-11-05T06:45:45.130Z,101034.88
2022-11-05T06:48:15.551Z,101040.25
2022-11-05T06:50:45.959Z,101042.19
2022-11-05T06:53:14.187Z,101041.34
2022-11-05T06:55:41.784Z,101054.50
2022-11-05T06:58:09.376Z,101052.81
2022-11-05T07:00:37.892Z,101059.88
2022-11-05T07:03:06.528Z,101052.06
2022-11-05T07:05:38.119Z,101060.72
2022-11-05T07:08:07.748Z,101059.78
2022-11-05T07:10:35.464Z,101063.16
2022-11-05T07:13:08.055Z,101062.16
2022-11-05T07:15:36.789Z,101071.56
2022-11-05T07:18:07.074Z,101069.59
2022-11-05T07:20:37.627Z,101075.47
2022-11-05T07:23:09.335Z,101071.78
2022-11-05T07:25:37.735Z,101079.34
2022-11-05T07:28:06.922Z,101070.22
2022-11-05T07:30:36.069Z,101078.72
2022-11-05T07:33:06.409Z,101078.38
2022-11-05T07:35:34.037Z,101075.38
2022-11-05T07:38:02.996Z,101082.06
2022-11-05T07:40:31.088Z,101080.88
2022-11-05T07:43:00.403Z,101083.13
2022-11-05T07:45:30.037Z,101088.03
2022-11-05T07:48:00.280Z,101094.47
2022-11-05T07:50:33.737Z,101091.19
2022-11-05T07:53:06.759Z,101087.72
2022-11-05T07:55:35.390Z,101087.72
2022-11-05T07:58:03.384Z,101093.84
2022-11-05T08:00:32.042Z,101089.72
2022-11-05T08:03:09.355Z,101093.56
2022-11-05T08:05:41.786Z,101089.50
2022-11-05T08:08:12.741Z,101090.81
2022-11-05T08:10:41.848Z,101086.94
2022-11-05T08:13:10.851Z,101088.44
2022-11-05T08:15:39.395Z,101094.19
2022-11-05T08:18:08.971Z,101093.88
2022-11-05T08:20:37.030Z,101090.00
2022-11-05T08:23:04.820Z,101087.91
2022-11-05T08:25:37.891Z,101092.91
2022-11-05T08:28:08.753Z,101093.66
2022-11-05T08:30:36.414Z,101096.09
2022-11-05T08:33:06.914Z,101102.78
2022-11-05T08:35:35.799Z,101104.38
2022-11-05T08:38:05.859Z,101105.75
2022-11-05T08:40:36.260Z,101106.31
2022-11-05T08:43:29.168Z,101108.56
2022-11-05T08:45:57.757Z,101112.59
2022-11-05T08:48:26.256Z,101112.19
2022-11-05T08:50:56.785Z,101116.22
2022-11-05T08:53:25.136Z,101118.34
2022-11-05T08:55:58.240Z,101120.56
2022-11-05T08:58:25.859Z,101121.00
2022-11-05T09:00:53.817Z,101114.38
2022-11-05T09:03:21.709Z,101115.72
2022-11-05T09:05:49.282Z,101124.13
2022-11-05T09:08:20.769Z,101129.84
2022-11-05T09:10:50.140Z,101130.38
2022-11-05T09:13:20.388Z,101129.75
2022-11-05T09:15:48.962Z,101132.81
2022-11-05T09:18:18.612Z,101136.72
2022-11-05T09:20:47.044Z,101142.34
2022-11-05T09:23:15.673Z,101139.88
2022-11-05T09:25:45.609Z,101139.13
2022-11-05T09:28:17.018Z,101141.28
2022-11-05T09:30:47.953Z,101133.19
2022-11-05T09:33:17.825Z,101127.22
2022-11-05T09:35:45.576Z,101131.72
2022-11-05T09:38:13.624Z,101138.06
2022-11-05T09:40:45.974Z,101134.00
2022-11-05T09:43:19.675Z,101135.50
2022-11-05T09:45:53.379Z,101137.72
2022-11-05T09:48:25.451Z,101131.97
2022-11-05T09:50:54.597Z,101135.53
2022-11-05T09:53:24.319Z,101141.94
2022-11-05T09:58:52.759Z,101145.03
2022-11-05T10:01:26.954Z,101140.00
2022-11-05T10:03:58.315Z,101147.25
2022-11-05T10:06:29.920Z,101144.75
2022-11-05T10:09:03.757Z,101147.91
2022-11-05T10:11:38.315Z,101140.53
2022-11-05T10:14:17.351Z,101150.81
2022-11-05T10:16:52.548Z,101142.97
2022-11-05T10:19:24.888Z,101146.00
2022-11-05T10:22:11.229Z,101151.56
2022-11-05T10:24:41.844Z,101140.09
2022-11-05T10:27:15.488Z,101143.25
2022-11-05T10:29:46.233Z,101147.25
2022-11-05T10:32:22.435Z,101146.63
2022-11-05T10:34:51.333Z,101155.94
2022-11-05T10:37:20.758Z,101145.78
2022-11-05T10:39:49.571Z,101148.44
2022-11-05T10:42:34.913Z,101148.69
2022-11-05T10:45:14.564Z,101152.56
2022-11-05T10:47:59.190Z,101151.25
2022-11-05T10:50:29.355Z,101152.56
2022-11-05T10:53:00.020Z,101144.19
2022-11-05T10:55:30.863Z,101141.31
2022-11-05T10:58:09.976Z,101144.56
2022-11-05T11:00:38.653Z,101140.44
2022-11-05T11:03:39.994Z,101138.03
2022-11-05T11:06:20.915Z,101143.69
2022-11-05T11:08:51.225Z,101136.91
2022-11-05T11:11:31.390Z,101135.13
2022-11-05T11:14:08.865Z,101146.94
2022-11-05T11:16:38.837Z,101144.00
2022-11-05T11:19:27.856Z,101141.81
2022-11-05T11:22:17.663Z,101146.63
2022-11-05T11:24:48.001Z,101145.53
2022-11-05T11:27:23.094Z,101148.91
2022-11-05T11:29:56.961Z,101150.09
2022-11-05T11:32:32.844Z,101141.13
2022-11-05T11:35:02.312Z,101138.38
2022-11-05T11:37:34.847Z,101141.25
2022-11-05T11:40:10.111Z,101144.41
2022-11-05T11:42:41.767Z,101147.06
2022-11-05T11:45:42.474Z,101139.53
2022-11-05T11:48:17.791Z,101150.19
2022-11-05T11:50:49.486Z,101149.91
2022-11-05T11:53:26.805Z,101144.84
2022-11-05T11:56:07.067Z,101148.09
2022-11-05T11:58:41.634Z,101151.50
2022-11-05T12:01:38.430Z,101156.91
2022-11-05T12:04:21.047Z,101153.31
2022-11-05T12:06:59.122Z,101157.91
2022-11-05T12:09:41.853Z,101149.91
2022-11-05T12:12:13.757Z,101144.84
2022-11-05T12:14:50.781Z,101153.41
2022-11-05T12:17:36.469Z,101153.31
2022-11-05T12:20:17.790Z,101143.59
2022-11-05T12:23:08.474Z,101147.00
2022-11-05T12:25:46.432Z,101145.03
2022-11-05T12:28:30.386Z,101140.19
2022-11-05T12:31:08.307Z,101143.69
2022-11-05T12:33:46.826Z,101143.56
2022-11-05T12:36:30.794Z,101139.66
2022-11-05T12:39:37.378Z,101140.84
2022-11-05T12:42:12.213Z,101139.59
2022-11-05T12:45:06.810Z,101123.94
2022-11-05T12:47:49.830Z,101133.22
2022-11-05T12:50:25.771Z,101130.03
2022-11-05T12:53:20.101Z,101121.38
2022-11-05T12:55:51.389Z,101124.78
2022-11-05T12:58:24.482Z,101127.63
2022-11-05T13:00:56.718Z,101119.94
2022-11-05T13:03:37.862Z,101127.25
2022-11-05T13:06:11.165Z,101125.88
2022-11-05T13:08:44.599Z,101119.69
2022-11-05T13:11:24.579Z,101124.78
2022-11-05T13:14:05.091Z,101113.28
2022-11-05T13:16:37.784Z,101102.47
2022-11-05T13:19:16.354Z,101102.31
2022-11-05T13:21:46.449Z,101101.47
2022-11-05T13:24:19.388Z,101100.06
2022-11-05T13:26:53.744Z,101101.03
2022-11-05T13:29:26.348Z,101112.53
2022-11-05T13:31:59.920Z,101111.69
2022-11-05T13:34:55.979Z,101095.72
2022-11-05T13:37:47.447Z,101098.25
2022-11-05T13:40:19.826Z,101110.16
2022-11-05T13:43:04.795Z,101111.97
2022-11-05T13:45:50.063Z,101115.63
2022-11-05T13:48:45.328Z,101111.25
2022-11-05T13:51:31.495Z,101108.72
2022-11-05T13:54:28.856Z,101110.56
2022-11-05T13:57:12.075Z,101092.03
2022-11-05T14:00:00.081Z,101095.16
2022-11-05T14:02:32.497Z,101105.91
2022-11-05T14:05:02.306Z,101092.59
2022-11-05T14:07:31.978Z,101090.66
2022-11-05T14:10:02.644Z,101086.03
2022-11-05T14:12:35.831Z,101087.72
2022-11-05T14:15:10.242Z,101083.81
2022-11-05T14:17:56.389Z,101087.47
2022-11-05T14:20:40.110Z,101085.63
2022-11-05T14:23:47.998Z,101093.34
2022-11-05T14:26:22.782Z,101080.34
2022-11-05T14:28:52.789Z,101082.56
2022-11-05T14:32:02.340Z,101088.84
2022-11-05T14:34:42.798Z,101080.00
2022-11-05T14:37:29.796Z,101085.13
2022-11-05T14:40:01.315Z,101082.28
2022-11-05T14:42:30.385Z,101084.19
2022-11-05T14:45:05.500Z,101082.22
2022-11-05T14:47:36.848Z,101079.13
2022-11-05T14:50:11.494Z,101075.75
2022-11-05T14:52:41.832Z,101079.13
2022-11-05T14:55:26.802Z,101071.66
2022-11-05T14:58:07.835Z,101077.38
2022-11-05T15:00:46.415Z,101077.66
2022-11-05T15:03:34.117Z,101080.03
2022-11-05T15:06:20.954Z,101082.94
2022-11-05T15:09:25.169Z,101073.97
2022-11-05T15:12:02.726Z,101067.63
2022-11-05T15:14:34.783Z,101067.88
2022-11-05T15:17:13.821Z,101069.97
2022-11-05T15:19:44.154Z,101063.22
2022-11-05T15:22:25.836Z,101068.78
2022-11-05T15:24:53.660Z,101073.56
2022-11-05T15:27:40.967Z,101078.44
2022-11-05T15:30:16.430Z,101080.63
2022-11-05T15:32:44.096Z,101081.88
2022-11-05T15:35:26.894Z,101090.13
2022-11-05T15:38:02.180Z,101085.88
2022-11-05T15:40:32.697Z,101081.81
2022-11-05T15:43:16.304Z,101086.41
2022-11-05T15:45:44.076Z,101076.16
2022-11-05T15:48:16.204Z,101092.38
2022-11-05T15:50:45.405Z,101095.31
2022-11-05T15:53:44.209Z,101093.03
2022-11-05T15:56:11.774Z,101094.25
2022-11-05T15:58:49.824Z,101101.66
2022-11-05T16:01:22.150Z,101103.59
2022-11-05T16:03:50.879Z,101105.06
2022-11-05T16:06:21.077Z,101100.97
2022-11-05T16:08:50.418Z,101094.81
2022-11-05T16:11:22.604Z,101102.47
2022-11-05T16:13:51.660Z,101104.53
2022-11-05T16:16:34.904Z,101100.44
2022-11-05T16:19:02.600Z,101103.31
2022-11-05T16:21:31.478Z,101097.44
2022-11-05T16:24:00.899Z,101104.91
2022-11-05T16:27:02.254Z,101102.47
2022-11-05T16:29:27.805Z,101104.56
2022-11-05T16:31:57.516Z,101093.59
2022-11-05T16:34:28.317Z,101091.16
2022-11-05T16:36:59.952Z,101095.91
2022-11-05T16:39:28.808Z,101097.94
2022-11-05T16:41:57.285Z,101092.03
2022-11-05T16:44:25.348Z,101090.47
2022-11-05T16:46:53.752Z,101085.38
2022-11-05T16:49:24.305Z,101083.00
2022-11-05T16:51:51.901Z,101088.66
2022-11-05T16:54:20.874Z,101089.78
2022-11-05T16:56:48.474Z,101082.78
2022-11-05T16:59:16.134Z,101084.81
2022-11-05T17:01:44.929Z,101088.53
2022-11-05T17:04:14.146Z,101085.19
2022-11-05T17:06:43.831Z,101084.59
2022-11-05T17:09:11.419Z,101077.69
2022-11-05T17:11:41.063Z,101081.44
2022-11-05T17:14:10.491Z,101092.19
2022-11-05T17:16:38.561Z,101090.63
2022-11-05T17:19:08.111Z,101078.44
2022-11-05T17:21:36.567Z,101090.97
2022-11-05T17:24:04.313Z,101086.78
2022-11-05T17:26:31.905Z,101094.88
2022-11-05T17:29:01.117Z,101087.13
2022-11-05T17:31:28.766Z,101094.38
2022-11-05T17:33:58.754Z,101096.28
2022-11-05T17:36:28.807Z,101091.09
2022-11-05T17:38:56.882Z,101088.56
2022-11-05T17:41:25.018Z,101091.34
2022-11-05T17:43:55.204Z,101092.44
2022-11-05T17:46:25.712Z,101096.19
2022-11-05T17:48:54.193Z,101083.00
2022-11-05T17:51:22.457Z,101083.97
2022-11-05T17:53:50.777Z,101081.56
2022-11-05T17:56:32.594Z,101086.03
2022-11-05T17:59:02.901Z,101085.19
2022-11-05T18:01:35.508Z,101085.41
2022-11-05T18:04:08.637Z,101083.47
2022-11-05T18:06:36.890Z,101079.25
2022-11-05T18:09:05.027Z,101076.59
2022-11-05T18:11:32.548Z,101081.91
2022-11-05T18:14:00.838Z,101079.13
2022-11-05T18:16:28.806Z,101082.75
2022-11-05T18:18:57.911Z,101088.06
2022-11-05T18:21:25.522Z,101083.47
2022-11-05T18:23:53.288Z,101086.97
2022-11-05T18:26:22.340Z,101087.94
2022-11-05T18:28:49.925Z,101085.19
2022-11-05T18:31:20.425Z,101087.84
2022-11-05T18:33:48.915Z,101082.41
2022-11-05T18:36:20.050Z,101082.28
2022-11-05T18:38:48.790Z,101083.25
2022-11-05T18:41:17.441Z,101081.31
2022-11-05T18:43:45.296Z,101076.00
2022-11-05T18:46:35.752Z,101079.50
2022-11-05T18:49:00.883Z,101083.63
2022-11-05T18:51:29.833Z,101084.59
2022-11-05T18:53:57.491Z,101073.13
2022-11-05T18:56:25.961Z,101080.84
2022-11-05T18:59:14.672Z,101076.50
2022-11-05T19:01:42.439Z,101078.78
2022-11-05T19:04:10.733Z,101073.63
2022-11-05T19:06:40.472Z,101076.28
2022-11-05T19:09:09.909Z,101068.19
2022-11-05T19:11:37.540Z,101065.53
2022-11-05T19:14:05.061Z,101053.94
2022-11-05T19:16:33.673Z,101058.25
2022-11-05T19:19:02.697Z,101064.31
2022-11-05T19:21:31.316Z,101064.19
2022-11-05T19:24:03.724Z,101070.56
2022-11-05T19:26:35.862Z,101074.06
2022-11-05T19:29:04.711Z,101074.81
2022-11-05T19:31:32.843Z,101084.47
2022-11-05T19:34:01.276Z,101076.38
2022-11-05T19:36:28.880Z,101078.06
2022-11-05T19:39:01.817Z,101091.22
2022-11-05T19:41:31.115Z,101080.63
2022-11-05T19:43:59.481Z,101090.13
2022-11-05T19:46:28.343Z,101086.28
2022-11-05T19:48:55.888Z,101094.38
2022-11-05T19:51:25.260Z,101080.13
2022-11-05T19:53:54.821Z,101081.81
2022-11-05T19:56:24.481Z,101077.22
2022-11-05T19:58:54.408Z,101076.00
2022-11-05T20:01:24.118Z,101067.34
2022-11-05T20:03:53.255Z,101068.75
2022-11-05T20:06:22.434Z,101066.09
2022-11-05T20:09:19.925Z,101064.41
2022-11-05T20:11:39.789Z,101067.06
2022-11-05T20:14:10.836Z,101066.94
2022-11-05T20:16:40.132Z,101075.66
2022-11-05T20:19:10.960Z,101071.41
2022-11-05T20:21:39.938Z,101070.56
2022-11-05T20:24:08.180Z,101078.53
2022-11-05T20:26:36.896Z,101086.28
2022-11-05T20:29:05.417Z,101085.44
2022-11-05T20:31:34.739Z,101085.19
2022-11-05T20:34:02.338Z,101077.34
2022-11-05T20:36:29.968Z,101074.69
2022-11-05T20:38:59.340Z,101080.72
2022-11-05T20:41:27.261Z,101070.06
2022-11-05T20:43:55.819Z,101070.91
2022-11-05T20:46:23.958Z,101072.25
2022-11-05T20:48:54.232Z,101064.63
2022-11-05T20:51:24.344Z,101069.84
2022-11-05T20:53:55.573Z,101062.84
2022-11-05T20:56:25.129Z,101059.94
2022-11-05T20:58:55.434Z,101072.50
2022-11-05T21:01:23.434Z,101065.38
2022-11-05T21:03:51.278Z,101083.00
2022-11-05T21:06:20.898Z,101074.31
2022-11-05T21:08:49.293Z,101076.13
2022-11-05T21:11:17.819Z,101083.97
2022-11-05T21:13:45.615Z,101079.72
2022-11-05T21:16:18.012Z,101086.75
2022-11-05T21:18:47.359Z,101094.13
2022-11-05T21:21:17.251Z,101079.16
2022-11-05T21:23:46.549Z,101078.41
2022-11-05T21:26:16.682Z,101080.13
2022-11-05T21:28:44.392Z,101073.22
2022-11-05T21:31:12.117Z,101065.59
2022-11-05T21:33:40.818Z,101061.75
2022-11-05T21:36:10.367Z,101060.91
2022-11-05T21:38:38.549Z,101059.81
2022-11-05T21:41:08.466Z,101060.91
2022-11-05T21:43:36.375Z,101046.94
2022-11-05T21:46:05.375Z,101046.66
2022-11-05T21:48:33.849Z,101044.13
2022-11-05T21:51:19.129Z,101047.63
2022-11-05T21:54:04.372Z,101044.97
2022-11-05T21:56:52.819Z,101032.53
2022-11-05T21:59:40.445Z,101035.56
2022-11-05T22:02:11.040Z,101051.41
2022-11-05T22:04:42.113Z,101040.63
2022-11-05T22:07:12.149Z,101050.41
2022-11-05T22:09:40.879Z,101055.59
2022-11-05T22:12:11.171Z,101052.94
2022-11-05T22:14:39.862Z,101052.94
2022-11-05T22:17:08.230Z,101048.47
2022-11-05T22:19:36.409Z,101047.50
2022-11-05T22:22:05.805Z,101053.66
2022-11-05T22:24:34.812Z,101053.66
2022-11-05T22:27:05.032Z,101047.28
2022-11-05T22:29:34.178Z,101042.09
2022-11-05T22:32:01.810Z,101041.00
2022-11-05T22:34:30.190Z,101040.28
2022-11-05T22:36:58.747Z,101034.97
2022-11-05T22:39:26.357Z,101026.16
2022-11-05T22:41:55.593Z,101013.72
2022-11-05T22:44:23.842Z,101016.94
2022-11-05T22:46:53.784Z,101011.91
2022-11-05T22:49:21.626Z,101023.38
2022-11-05T22:51:49.256Z,101019.97
2022-11-05T22:54:17.426Z,101019.03
2022-11-05T22:56:45.033Z,101010.22
2022-11-05T22:59:15.804Z,101016.59
2022-11-05T23:01:45.223Z,101014.91
2022-11-05T23:04:14.930Z,101013.94
2022-11-05T23:07:00.780Z,101021.06
2022-11-05T23:09:48.960Z,101012.97
2022-11-05T23:12:22.952Z,101013.22
2022-11-05T23:14:52.891Z,101009.84
2022-11-05T23:17:38.350Z,101006.34
2022-11-05T23:20:29.804Z,101005.50
2022-11-05T23:23:16.434Z,100997.53
2022-11-05T23:25:44.578Z,101003.94
2022-11-05T23:28:37.749Z,101006.72
2022-11-05T23:31:27.588Z,101002.50
2022-11-05T23:33:55.157Z,100999.69
2022-11-05T23:36:41.724Z,100990.91
2022-11-05T23:39:09.315Z,100991.16
2022-11-05T23:41:54.288Z,100988.72
2022-11-05T23:44:39.666Z,100993.81
2022-11-05T23:47:25.925Z,100987.06
2022-11-05T23:49:54.823Z,100982.56
2022-11-05T23:52:23.659Z,100976.44
2022-11-05T23:54:51.791Z,100977.53
2022-11-05T23:57:19.355Z,100966.06
2022-11-05T23:59:46.928Z,100962.53
